Time;durP1;ratioP1;P1;durP2;ratioP2;P2;SDS_P1;SDS_P2;PMS_P1;PMS_P2;Temp;Humidity;BMP_temperature;BMP_pressure;BME280_temperature;BME280_humidity;BME280_pressure;Samples;Min_cycle;Max_cycle;Signal;HPM_P1;HPM_P2
2024/04/08 00:01:15;;;;;;;3.53;0.73;;;;;;;19.15;56.57;100972.19;10456529;28;20291;-61
2024/04/08 00:06:16;;;;;;;1.30;0.80;;;;;;;19.13;56.67;100961.72;10455676;28;20398;-61
2024/04/08 00:11:16;;;;;;;5.40;0.80;;;;;;;19.14;56.72;100975.97;10455959;28;20028;-61
2024/04/08 00:16:16;;;;;;;1.73;0.90;;;;;;;19.13;56.67;100979.75;10437675;28;20326;-61
2024/04/08 00:21:17;;;;;;;3.22;0.90;;;;;;;19.12;56.51;100983.53;10455768;28;20294;-61
2024/04/08 00:26:17;;;;;;;1.88;0.98;;;;;;;19.12;56.82;100980.84;10454963;28;20033;-61
2024/04/08 00:31:18;;;;;;;3.10;0.90;;;;;;;19.11;56.51;100987.31;10455035;28;20047;-61
2024/04/08 00:36:18;;;;;;;2.63;1.23;;;;;;;19.11;56.63;100984.63;10436704;28;20425;-61
2024/04/08 00:41:18;;;;;;;3.73;0.90;;;;;;;19.09;56.92;100976.84;10454348;28;20370;-61
2024/04/08 00:46:25;;;;;;;1.13;0.80;;;;;;;19.09;56.82;100960.72;10454580;28;20267;-61
2024/04/08 00:51:26;;;;;;;2.03;0.98;;;;;;;19.09;56.64;100962.63;10436672;28;20311;-61
2024/04/08 00:56:26;;;;;;;1.83;1.15;;;;;;;19.09;57.10;100970.69;10436256;28;20021;-61
2024/04/08 01:01:27;;;;;;;3.28;1.27;;;;;;;19.06;56.28;100961.31;10435804;28;20033;-61
2024/04/08 01:06:27;;;;;;;2.25;0.85;;;;;;;19.08;56.65;100947.59;10436179;28;20025;-61
2024/04/08 01:11:28;;;;;;;2.80;1.33;;;;;;;19.06;56.95;100939.81;10452990;28;20029;-61
2024/04/08 01:16:28;;;;;;;1.38;0.73;;;;;;;19.05;57.08;100943.56;10452882;28;20295;-61
2024/04/08 01:21:29;;;;;;;2.57;0.97;;;;;;;19.05;57.00;100948.16;10434875;28;20025;-61
2024/04/08 01:26:29;;;;;;;2.00;0.80;;;;;;;19.04;56.61;100955.41;10435263;28;20021;-61
2024/04/08 01:31:29;;;;;;;2.08;0.90;;;;;;;19.04;57.06;100930.44;10434631;28;20275;-60
2024/04/08 01:36:30;;;;;;;1.63;0.70;;;;;;;19.03;56.90;100935.00;10452677;28;20017;-61
2024/04/08 01:41:30;;;;;;;2.75;0.93;;;;;;;19.02;57.11;100932.63;10434221;28;20268;-61
2024/04/08 01:46:30;;;;;;;2.07;0.83;;;;;;;19.01;56.70;100934.50;10414463;28;20062;-61
2024/04/08 01:51:31;;;;;;;2.63;1.23;;;;;;;19.01;56.93;100936.41;10449134;28;20857;-61
2024/04/08 01:56:31;;;;;;;2.10;0.83;;;;;;;19.00;56.93;100927.53;10449719;28;20299;-61
2024/04/08 02:01:32;;;;;;;2.65;0.93;;;;;;;18.99;57.10;100929.44;10448879;28;20421;-61
2024/04/08 02:06:32;;;;;;;2.50;0.85;;;;;;;18.97;57.33;100931.63;10450061;28;20021;-61
2024/04/08 02:11:32;;;;;;;1.33;0.70;;;;;;;18.97;56.92;100918.19;10450747;28;20028;-61
2024/04/08 02:16:33;;;;;;;1.53;0.83;;;;;;;18.97;56.87;100920.88;10451038;28;20778;-61
2024/04/08 02:21:33;;;;;;;3.30;1.53;;;;;;;18.96;56.46;100907.72;10450408;28;20033;-61
2024/04/08 02:26:33;;;;;;;2.03;0.93;;;;;;;18.95;56.74;100893.50;10432853;28;20024;-61
2024/04/08 02:31:34;;;;;;;2.57;0.90;;;;;;;18.95;57.27;100879.28;10431860;28;20275;-61
2024/04/08 02:36:34;;;;;;;2.47;0.80;;;;;;;18.94;57.06;100881.16;10450532;28;20556;-61
2024/04/08 02:41:34;;;;;;;2.97;1.13;;;;;;;18.94;57.35;100896.44;10449891;28;20275;-61
2024/04/08 02:46:35;;;;;;;2.30;0.83;;;;;;;18.94;57.15;100896.44;10450199;28;20025;-60
2024/04/08 02:51:36;;;;;;;1.43;0.97;;;;;;;18.93;56.64;100894.84;10449828;28;20515;-61
2024/04/08 02:56:36;;;;;;;1.40;0.60;;;;;;;18.92;57.35;100891.38;10449577;28;20037;-61
2024/04/08 03:01:36;;;;;;;1.52;0.90;;;;;;;18.91;57.33;100870.19;10449305;28;20052;-61
2024/04/08 03:06:37;;;;;;;0.90;0.60;;;;;;;18.90;56.59;100873.97;10431364;28;20029;-61
2024/04/08 03:11:37;;;;;;;1.33;0.70;;;;;;;18.89;56.82;100878.53;10431128;28;20052;-61
2024/04/08 03:16:37;;;;;;;2.60;1.20;;;;;;;18.90;57.38;100892.78;10449320;28;20291;-61
2024/04/08 03:21:38;;;;;;;1.85;0.60;;;;;;;18.89;57.16;100873.16;10448998;28;20980;-61
2024/04/08 03:26:38;;;;;;;2.63;0.83;;;;;;;18.88;57.25;100876.16;10414702;28;20464;-61
2024/04/08 03:31:38;;;;;;;2.30;0.97;;;;;;;18.88;56.81;100889.59;10431011;28;20329;-61
2024/04/08 03:36:39;;;;;;;2.57;1.30;;;;;;;18.87;57.55;100896.06;10447870;28;20298;-61
2024/04/08 03:41:39;;;;;;;4.18;3.88;;;;;;;18.85;57.57;100904.41;10435522;28;20672;-61
2024/04/08 03:46:39;;;;;;;5.87;2.97;;;;;;;18.87;57.40;100904.91;10436843;28;20407;-62
2024/04/08 03:51:40;;;;;;;3.42;1.92;;;;;;;18.88;57.71;100893.06;10448375;28;20275;-61
2024/04/08 03:56:40;;;;;;;2.22;1.67;;;;;;;18.88;57.97;100882.31;10448796;28;20033;-61
2024/04/08 04:01:41;;;;;;;3.57;1.60;;;;;;;18.88;58.01;100876.16;10430299;28;20122;-61
2024/04/08 04:06:41;;;;;;;9.43;1.93;;;;;;;18.87;58.47;100861.91;10448392;28;20283;-61
2024/04/08 04:11:41;;;;;;;2.57;1.80;;;;;;;18.87;58.41;100856.53;10433374;28;20286;-61
2024/04/08 04:16:41;;;;;;;2.80;2.20;;;;;;;18.87;57.91;100845.00;10435037;28;20299;-60
2024/04/08 04:21:42;;;;;;;3.70;2.40;;;;;;;18.87;57.72;100845.00;10452560;28;20267;-61
2024/04/08 04:26:42;;;;;;;2.73;1.50;;;;;;;18.85;57.97;100837.25;10452527;28;20491;-60
2024/04/08 04:31:44;;;;;;;3.83;1.73;;;;;;;18.84;57.76;100814.16;10452093;28;20315;-61
2024/04/08 04:36:45;;;;;;;4.85;2.08;;;;;;;18.84;57.77;100816.03;10451144;28;20024;-60
2024/04/08 04:41:46;;;;;;;1.70;1.30;;;;;;;18.84;57.61;100816.03;10433818;28;20032;-61
2024/04/08 04:46:48;;;;;;;1.90;1.50;;;;;;;18.83;58.23;100825.19;10452556;28;20376;-61
2024/04/08 04:51:48;;;;;;;4.45;1.75;;;;;;;18.81;58.02;100825.47;10432124;28;20037;-62
2024/04/08 04:56:48;;;;;;;3.33;1.50;;;;;;;18.80;57.95;100837.31;10435750;28;20430;-61
2024/04/08 05:01:48;;;;;;;2.27;1.30;;;;;;;18.80;57.74;100831.13;10452977;28;20286;-61
2024/04/08 05:06:49;;;;;;;2.60;1.50;;;;;;;18.79;57.34;100805.38;10452412;28;20283;-61
2024/04/08 05:11:49;;;;;;;13.00;3.00;;;;;;;18.78;57.99;100814.53;10433117;28;20672;-62
2024/04/08 05:16:50;;;;;;;11.17;2.73;;;;;;;18.81;58.25;100819.28;10434601;28;20297;-59
2024/04/08 05:21:50;;;;;;;3.85;2.92;;;;;;;18.83;58.98;100812.56;10451225;28;20308;-61
2024/04/08 05:26:50;;;;;;;9.23;2.83;;;;;;;18.83;59.62;100812.56;10452351;28;20090;-60
2024/04/08 05:31:51;;;;;;;11.60;3.37;;;;;;;18.84;58.96;100841.03;10451620;28;20341;-60
2024/04/08 05:36:51;;;;;;;18.43;3.33;;;;;;;18.83;59.54;100865.50;10452116;28;20280;-61
2024/04/08 05:41:51;;;;;;;10.43;3.63;;;;;;;18.84;59.51;100861.72;10433209;28;20271;-62
2024/04/08 05:46:52;;;;;;;10.70;3.72;;;;;;;18.83;59.40;100868.97;10451485;28;20067;-61
2024/04/08 05:51:52;;;;;;;15.63;4.95;;;;;;;18.82;60.30;100869.25;10433046;28;20031;-62
2024/04/08 05:56:52;;;;;;;12.93;3.70;;;;;;;18.78;59.69;100890.53;10416319;28;20020;-62
2024/04/08 06:01:53;;;;;;;15.40;4.23;;;;;;;18.79;58.06;100907.44;10449506;28;20033;-63
2024/04/08 06:06:53;;;;;;;14.67;4.57;;;;;;;18.77;58.94;100897.00;10431908;28;20282;-63
2024/04/08 06:11:53;;;;;;;26.47;5.53;;;;;;;18.77;59.30;100839.78;10415306;28;20294;-63
2024/04/08 06:16:54;;;;;;;18.30;4.27;;;;;;;18.76;59.48;100824.78;10416680;28;20313;-63
2024/04/08 06:21:55;;;;;;;15.13;4.93;;;;;;;18.76;58.97;100828.25;10432472;28;20287;-62
2024/04/08 06:26:55;;;;;;;11.77;4.40;;;;;;;18.75;59.08;100841.97;10450723;28;20039;-63
2024/04/08 06:31:55;;;;;;;23.08;3.63;;;;;;;18.75;58.96;100863.47;10431654;28;20276;-63
2024/04/08 06:36:56;;;;;;;15.63;4.37;;;;;;;18.74;59.39;100864.56;10432288;28;20079;-62
2024/04/08 06:41:56;;;;;;;11.77;3.70;;;;;;;18.74;59.11;100872.63;10431154;28;20274;-62
2024/04/08 06:46:57;;;;;;;13.98;3.20;;;;;;;18.73;59.14;100866.44;10431661;28;20626;-62
2024/04/08 06:51:57;;;;;;;7.75;3.03;;;;;;;18.72;58.78;100872.91;10430861;28;20127;-63
2024/04/08 06:56:57;;;;;;;11.10;3.10;;;;;;;18.71;59.01;100874.00;10431283;28;20025;-63
2024/04/08 07:01:57;;;;;;;14.33;3.70;;;;;;;18.71;58.83;100874.00;10448372;28;20592;-63
2024/04/08 07:06:58;;;;;;;7.40;2.97;;;;;;;18.70;59.04;100878.56;10430928;28;20290;-62
2024/04/08 07:11:59;;;;;;;6.00;1.80;;;;;;;18.70;58.89;100893.88;10447751;28;20377;-62
2024/04/08 07:16:59;;;;;;;6.32;2.35;;;;;;;18.68;58.89;100888.00;10430908;28;20136;-62
2024/04/08 07:22:00;;;;;;;6.22;2.80;;;;;;;18.68;58.55;100902.22;10429900;28;20059;-62
2024/04/08 07:27:01;;;;;;;4.68;2.28;;;;;;;18.69;58.97;100890.38;10448717;28;20032;-62
2024/04/08 07:32:01;;;;;;;5.93;2.03;;;;;;;18.67;58.25;100872.97;10447469;28;20025;-62
2024/04/08 07:37:02;;;;;;;4.75;2.35;;;;;;;18.66;59.55;100877.53;10447912;28;20020;-62
2024/04/08 07:42:02;;;;;;;7.95;2.95;;;;;;;18.66;59.14;100872.19;10430248;28;20029;-62
2024/04/08 07:47:03;;;;;;;5.18;2.05;;;;;;;18.66;58.83;100864.13;10456112;28;20025;-62
2024/04/08 07:52:04;;;;;;;5.80;2.15;;;;;;;18.65;59.46;100859.03;10437649;28;20044;-62
2024/04/08 07:57:04;;;;;;;4.45;2.20;;;;;;;18.66;58.71;100852.59;10438435;28;20459;-62
2024/04/08 08:02:05;;;;;;;4.75;1.83;;;;;;;18.66;59.45;100857.94;10437908;28;20033;-62
2024/04/08 08:07:05;;;;;;;4.55;1.45;;;;;;;18.66;58.97;100855.25;10436749;28;20094;-62
2024/04/08 08:12:06;;;;;;;3.67;1.70;;;;;;;18.66;59.68;100849.91;10437288;28;20047;-62
2024/04/08 08:17:06;;;;;;;6.82;2.70;;;;;;;18.66;59.36;100825.72;10454435;28;20384;-62
2024/04/08 08:22:09;;;;;;;6.07;2.00;;;;;;;18.65;59.50;100816.88;10454829;28;20081;-62
2024/04/08 08:27:09;;;;;;;4.60;2.03;;;;;;;18.64;59.40;100791.09;10454352;28;20068;-62
2024/04/08 08:32:10;;;;;;;4.90;2.00;;;;;;;18.66;59.84;100785.44;10436743;28;20052;-62
2024/04/08 08:37:10;;;;;;;5.20;2.60;;;;;;;18.66;59.79;100785.44;10453854;28;20314;-62
2024/04/08 08:42:18;;;;;;;5.23;3.00;;;;;;;18.66;60.03;100780.84;10454004;28;20476;-62
2024/04/08 08:47:21;;;;;;;5.03;2.00;;;;;;;18.68;60.17;100780.56;10436202;28;20314;-62
2024/04/08 08:52:22;;;;;;;5.63;2.35;;;;;;;18.70;60.23;100781.84;10435656;28;20036;-62
2024/04/08 08:57:24;;;;;;;3.33;1.83;;;;;;;18.72;59.82;100786.97;10452481;28;20028;-62
2024/04/08 09:02:25;;;;;;;4.55;2.05;;;;;;;18.72;60.10;100799.59;10435700;28;20028;-63
2024/04/08 09:07:26;;;;;;;5.90;1.98;;;;;;;18.73;60.05;100804.66;10418247;28;20050;-62
2024/04/08 09:12:27;;;;;;;4.35;2.28;;;;;;;18.72;60.22;100797.69;10452827;28;20085;-62
2024/04/08 09:17:27;;;;;;;4.03;1.38;;;;;;;18.72;59.87;100799.59;10433948;28;20033;-62
2024/04/08 09:22:28;;;;;;;4.67;2.07;;;;;;;18.74;59.79;100797.41;10452680;28;20103;-62
2024/04/08 09:27:28;;;;;;;5.78;2.20;;;;;;;18.72;59.80;100803.06;10451753;28;20284;-62
2024/04/08 09:32:29;;;;;;;6.23;2.20;;;;;;;18.71;60.12;100785.38;10451976;28;20380;-62
2024/04/08 09:37:30;;;;;;;4.47;2.28;;;;;;;18.71;60.43;100798.78;10451551;28;20059;-62
2024/04/08 09:42:33;;;;;;;5.85;2.78;;;;;;;18.72;59.96;100795.03;10417294;28;20546;-62
2024/04/08 09:47:33;;;;;;;6.68;2.30;;;;;;;18.73;60.24;100772.44;10433340;28;20029;-62
2024/04/08 09:52:33;;;;;;;5.60;2.35;;;;;;;18.75;59.99;100778.31;10433428;28;20021;-63
2024/04/08 09:57:39;;;;;;;5.67;1.60;;;;;;;18.80;60.31;100785.47;10450723;28;20052;-62
2024/04/08 10:02:43;;;;;;;3.80;1.85;;;;;;;18.83;59.98;100772.25;10433032;28;20393;-62
2024/04/08 10:07:44;;;;;;;5.25;1.90;;;;;;;18.81;60.49;100762.88;10431827;28;20556;-62
2024/04/08 10:12:45;;;;;;;4.78;2.13;;;;;;;18.81;60.25;100763.69;10432495;28;20124;-62
2024/04/08 10:17:46;;;;;;;6.07;1.90;;;;;;;18.80;60.24;100753.22;10432109;28;20029;-62
2024/04/08 10:22:47;;;;;;;3.50;1.63;;;;;;;18.81;59.70;100761.00;10450337;28;20044;-62
2024/04/08 10:27:47;;;;;;;4.53;1.75;;;;;;;18.85;59.83;100747.78;10415259;28;20028;-62
2024/04/08 10:32:48;;;;;;;3.33;1.80;;;;;;;18.86;60.34;100735.94;10431669;28;20024;-62
2024/04/08 10:37:49;;;;;;;4.03;1.60;;;;;;;18.86;59.90;100747.50;10449386;28;20564;-62
2024/04/08 10:42:51;;;;;;;5.03;1.60;;;;;;;18.87;60.49;100749.06;10449447;28;20840;-62
2024/04/08 10:48:01;;;;;;;2.50;1.65;;;;;;;18.88;59.77;100742.59;10431665;28;20036;-62
2024/04/08 10:53:02;;;;;;;4.18;1.90;;;;;;;18.92;59.87;100738.22;10449179;28;20575;-63
2024/04/08 10:58:02;;;;;;;3.42;1.55;;;;;;;18.92;59.84;100742.81;10414329;28;20484;-62
2024/04/08 11:03:03;;;;;;;3.55;1.83;;;;;;;18.95;59.12;100726.13;10449518;28;20079;-62
2024/04/08 11:08:04;;;;;;;4.22;2.17;;;;;;;18.96;60.24;100719.63;10445694;28;20407;-62
2024/04/08 11:13:07;;;;;;;3.95;2.15;;;;;;;18.98;60.11;100712.06;10434307;28;20083;-61
2024/04/08 11:18:10;;;;;;;6.60;2.15;;;;;;;18.98;60.39;100712.88;10448279;28;20044;-62
2024/04/08 11:23:12;;;;;;;4.63;2.30;;;;;;;18.99;60.00;100703.72;10446194;28;20100;-62
2024/04/08 11:28:13;;;;;;;5.22;2.40;;;;;;;18.98;60.33;100695.94;10439046;28;20021;-63
2024/04/08 11:33:14;;;;;;;4.30;2.30;;;;;;;18.99;59.86;100690.28;10452335;28;20029;-61
2024/04/08 11:38:16;;;;;;;5.93;3.20;;;;;;;18.97;60.02;100689.78;10435225;28;20114;-63
2024/04/08 11:43:16;;;;;;;3.25;2.22;;;;;;;19.05;61.55;100698.22;10438502;28;20271;-62
2024/04/08 11:48:18;;;;;;;6.23;2.40;;;;;;;19.16;60.30;100707.69;10441709;28;20032;-62
2024/04/08 11:53:19;;;;;;;3.72;2.13;;;;;;;19.06;61.64;100700.63;10456621;28;20337;-62
2024/04/08 11:58:19;;;;;;;5.00;2.27;;;;;;;18.97;60.33;100697.06;10438658;28;20431;-62
2024/04/08 12:03:19;;;;;;;8.00;2.77;;;;;;;18.93;60.33;100694.13;10453267;28;20354;-62
2024/04/08 12:08:20;;;;;;;5.75;2.50;;;;;;;18.93;60.73;100687.97;10420806;28;20287;-62
2024/04/08 12:13:22;;;;;;;4.28;2.20;;;;;;;19.07;65.17;100672.66;10436746;28;20048;-62
2024/04/08 12:18:23;;;;;;;6.38;3.30;;;;;;;19.15;64.00;100682.69;10435127;28;20091;-63
2024/04/08 12:23:24;;;;;;;7.60;3.00;;;;;;;19.15;63.76;100663.88;10435107;28;20444;-64
2024/04/08 12:28:24;;;;;;;7.50;3.27;;;;;;;19.16;63.87;100651.22;10435441;28;20028;-63
2024/04/08 12:33:25;;;;;;;11.75;3.38;;;;;;;19.16;63.31;100627.84;10453081;28;20822;-63
2024/04/08 12:38:25;;;;;;;5.57;2.50;;;;;;;19.16;63.15;100622.47;10436252;28;20029;-62
2024/04/08 12:43:27;;;;;;;9.00;4.18;;;;;;;19.12;62.15;100626.06;10419591;28;20275;-63
2024/04/08 12:48:27;;;;;;;3.63;2.55;;;;;;;19.10;62.96;100639.00;10451059;28;20460;-63
2024/04/08 12:53:28;;;;;;;7.73;2.50;;;;;;;19.06;62.83;100646.91;10454877;28;20033;-62
2024/04/08 12:58:28;;;;;;;4.37;2.67;;;;;;;19.06;63.29;100628.06;10434069;28;20437;-62
2024/04/08 13:03:28;;;;;;;8.53;3.10;;;;;;;19.04;61.87;100616.00;10452593;28;20302;-62
2024/04/08 13:08:29;;;;;;;8.57;2.93;;;;;;;19.12;62.69;100602.69;10453031;28;20487;-61
2024/04/08 13:13:37;;;;;;;5.47;3.10;;;;;;;19.11;62.75;100594.91;10452473;28;20304;-63
2024/04/08 13:18:41;;;;;;;5.70;3.13;;;;;;;19.10;62.81;100604.06;10416117;28;20041;-63
2024/04/08 13:23:41;;;;;;;8.40;3.45;;;;;;;19.30;62.67;100598.28;10434448;28;20021;-62
2024/04/08 13:28:41;;;;;;;7.20;3.37;;;;;;;19.25;62.50;100601.84;10451413;28;20025;-61
2024/04/08 13:33:42;;;;;;;8.87;3.63;;;;;;;19.23;63.30;100589.81;10450049;28;20287;-62
2024/04/08 13:38:42;;;;;;;5.60;3.37;;;;;;;19.11;61.96;100597.59;10439409;28;20468;-61
2024/04/08 13:43:42;;;;;;;8.00;3.17;;;;;;;19.06;62.60;100597.69;10431626;28;20291;-65
2024/04/08 13:48:43;;;;;;;11.10;4.10;;;;;;;19.07;62.97;100599.31;10431828;28;20448;-65
2024/04/08 13:53:43;;;;;;;7.25;4.25;;;;;;;19.07;62.60;100593.94;10450046;28;20291;-65
2024/04/08 13:58:44;;;;;;;5.53;3.80;;;;;;;19.08;62.65;100582.88;10437713;28;20024;-64
2024/04/08 14:03:44;;;;;;;8.40;4.10;;;;;;;19.07;62.43;100567.84;10437568;28;20276;-63
2024/04/08 14:08:45;;;;;;;7.63;3.55;;;;;;;19.08;62.21;100556.00;10422490;28;20029;-63
2024/04/08 14:13:46;;;;;;;6.78;3.70;;;;;;;19.04;62.39;100548.84;10446396;28;20044;-61
2024/04/08 14:18:46;;;;;;;6.90;3.88;;;;;;;19.06;62.12;100560.91;10415922;28;20040;-63
2024/04/08 14:23:46;;;;;;;8.70;3.87;;;;;;;19.14;62.45;100541.34;10450416;28;20079;-63
2024/04/08 14:28:47;;;;;;;11.38;4.28;;;;;;;19.16;62.05;100532.97;10436233;28;20086;-62
2024/04/08 14:33:47;;;;;;;9.70;3.97;;;;;;;19.20;61.53;100513.28;10448677;28;20029;-62
2024/04/08 14:38:47;;;;;;;5.65;3.80;;;;;;;19.21;61.89;100501.41;10447972;28;20029;-63
2024/04/08 14:43:48;;;;;;;6.67;3.70;;;;;;;19.23;61.60;100498.41;10428277;28;20107;-61
2024/04/08 14:48:48;;;;;;;5.30;3.40;;;;;;;19.24;61.74;100495.41;10430979;28;20763;-61
2024/04/08 14:53:48;;;;;;;7.10;3.53;;;;;;;19.29;61.66;100502.56;10430805;28;20045;-61
2024/04/08 14:58:49;;;;;;;7.20;3.90;;;;;;;19.31;61.48;100478.09;10446510;28;20032;-61
2024/04/08 15:03:52;;;;;;;7.43;3.83;;;;;;;19.30;62.02;100466.53;10419005;28;20287;-62
2024/04/08 15:08:52;;;;;;;7.05;3.45;;;;;;;19.26;61.14;100454.78;10419711;28;20379;-60
2024/04/08 15:13:53;;;;;;;7.35;4.13;;;;;;;19.28;61.55;100453.38;10432256;28;20385;-61
2024/04/08 15:20:06;;;;;;;9.20;4.50;;;;;;;19.26;61.26;100433.28;11236307;26;20377;-61
2024/04/08 15:25:07;;;;;;;7.25;4.97;;;;;;;19.29;61.12;100438.03;11150550;26;20387;-64
2024/04/08 15:30:07;;;;;;;7.30;4.23;;;;;;;19.35;60.59;100426.06;11149426;26;19996;-62
2024/04/08 15:35:07;;;;;;;8.10;4.75;;;;;;;19.37;60.80;100429.25;11168563;26;20214;-62
2024/04/08 15:40:08;;;;;;;22.92;9.20;;;;;;;19.51;65.90;100415.72;11159614;26;19996;-62
2024/04/08 15:45:09;;;;;;;17.45;8.35;;;;;;;19.88;66.07;100411.78;11162264;26;20065;-61
2024/04/08 15:50:09;;;;;;;18.80;7.17;;;;;;;19.92;67.15;100417.34;11164949;26;20041;-62
2024/04/08 15:55:09;;;;;;;15.87;6.83;;;;;;;19.92;67.39;100399.31;11153860;26;20215;-62
2024/04/08 16:00:10;;;;;;;12.87;6.60;;;;;;;19.93;66.61;100398.22;11163343;26;20007;-63
2024/04/08 16:05:11;;;;;;;8.75;6.05;;;;;;;19.94;66.36;100382.84;11170613;26;20794;-60
2024/04/08 16:10:12;;;;;;;15.47;7.23;;;;;;;19.97;66.36;100377.63;11191744;26;20052;-61
2024/04/08 16:15:14;;;;;;;13.85;6.15;;;;;;;20.03;65.55;100365.63;11147019;26;20023;-59
2024/04/08 16:20:15;;;;;;;14.32;6.22;;;;;;;19.94;66.02;100367.50;11160540;26;19996;-58
2024/04/08 16:25:15;;;;;;;14.05;7.22;;;;;;;19.93;66.17;100368.59;11161025;26;20004;-61
2024/04/08 16:30:16;;;;;;;15.40;6.07;;;;;;;19.93;65.75;100373.19;11100257;26;20364;-59
2024/04/08 16:35:16;;;;;;;14.57;6.23;;;;;;;19.89;65.74;100370.34;11080052;26;20000;-60
2024/04/08 16:40:16;;;;;;;11.37;5.63;;;;;;;19.73;65.60;100363.78;11107463;26;20234;-60
2024/04/08 16:45:16;;;;;;;10.03;5.50;;;;;;;19.63;66.10;100362.16;11127532;26;20992;-60
2024/04/08 16:50:18;;;;;;;9.43;4.73;;;;;;;19.58;66.11;100365.00;11124234;26;20222;-60
2024/04/08 16:55:18;;;;;;;10.05;6.03;;;;;;;19.54;64.53;100353.28;11127632;26;20333;-60
2024/04/08 17:00:18;;;;;;;14.40;6.40;;;;;;;19.49;64.57;100346.13;11126677;26;20085;-64
2024/04/08 17:05:19;;;;;;;8.98;5.57;;;;;;;19.47;64.38;100342.16;11108085;26;20239;-61
2024/04/08 17:10:19;;;;;;;7.10;4.97;;;;;;;19.46;64.64;100335.19;11119456;26;20079;-59
2024/04/08 17:15:19;;;;;;;9.82;6.07;;;;;;;19.43;64.34;100328.53;11128253;26;20613;-59
2024/04/08 17:20:20;;;;;;;12.75;6.50;;;;;;;19.45;63.92;100339.78;11088203;26;19996;-60
2024/04/08 17:25:20;;;;;;;13.18;6.10;;;;;;;19.48;63.75;100332.97;11094366;26;20019;-61
2024/04/08 17:30:21;;;;;;;13.43;6.27;;;;;;;19.47;63.92;100323.34;11107357;26;20427;-61
2024/04/08 17:35:21;;;;;;;8.73;4.93;;;;;;;19.46;64.22;100319.06;11101241;26;20214;-61
2024/04/08 17:40:21;;;;;;;8.73;5.40;;;;;;;19.42;63.60;100318.09;11124873;26;19992;-61
2024/04/08 17:45:22;;;;;;;10.90;4.77;;;;;;;19.40;63.70;100323.75;11127445;26;20574;-62
2024/04/08 17:50:22;;;;;;;12.30;5.70;;;;;;;19.40;63.69;100313.00;11113031;26;20032;-61
2024/04/08 17:55:23;;;;;;;12.02;4.88;;;;;;;19.39;63.62;100305.25;11125563;26;20226;-61
2024/04/08 18:00:23;;;;;;;5.73;4.00;;;;;;;19.37;63.82;100302.09;11107314;26;20015;-61
2024/04/08 18:05:27;;;;;;;7.93;4.50;;;;;;;19.37;63.66;100288.66;11105020;26;20011;-61
2024/04/08 18:10:27;;;;;;;11.50;5.13;;;;;;;19.36;63.63;100285.16;11068982;26;20268;-61
2024/04/08 18:15:37;;;;;;;8.07;5.20;;;;;;;19.36;63.61;100281.69;11125193;26;19992;-61
2024/04/08 18:20:37;;;;;;;8.23;4.55;;;;;;;19.37;63.56;100276.00;11124948;26;20002;-61
2024/04/08 18:25:38;;;;;;;6.40;4.57;;;;;;;19.37;63.24;100267.94;11103282;26;19996;-63
2024/04/08 18:30:38;;;;;;;8.63;4.82;;;;;;;19.38;63.07;100268.72;11125050;26;20223;-63
2024/04/08 18:35:38;;;;;;;9.55;4.47;;;;;;;19.38;62.88;100268.72;11128950;26;20026;-63
2024/04/08 18:40:39;;;;;;;6.47;4.40;;;;;;;19.37;62.72;100273.31;11120619;26;20068;-61
2024/04/08 18:45:39;;;;;;;6.60;4.73;;;;;;;19.37;62.67;100270.63;11132654;26;20299;-61
2024/04/08 18:50:39;;;;;;;6.73;4.77;;;;;;;19.39;62.84;100270.31;11126642;26;20344;-61
2024/04/08 18:55:39;;;;;;;7.57;4.57;;;;;;;19.39;62.96;100264.94;11125795;26;20274;-61
2024/04/08 19:00:40;;;;;;;6.60;5.00;;;;;;;19.37;62.59;100262.56;11111028;26;20262;-61
2024/04/08 19:05:42;;;;;;;9.15;4.68;;;;;;;19.36;62.75;100269.03;11135808;26;20753;-61
2024/04/08 19:10:42;;;;;;;8.07;4.13;;;;;;;19.36;62.50;100260.19;11114719;26;20021;-60
2024/04/08 19:15:43;;;;;;;7.40;4.93;;;;;;;19.36;62.41;100263.66;11143285;26;20004;-60
2024/04/08 19:20:43;;;;;;;6.05;4.43;;;;;;;19.36;62.26;100257.50;11114060;26;20263;-61
2024/04/08 19:25:54;;;;;;;6.32;4.15;;;;;;;19.36;62.24;100252.13;11132767;26;20692;-60
2024/04/08 19:30:55;;;;;;;7.40;4.57;;;;;;;19.36;62.51;100254.81;11147000;26;19992;-60
2024/04/08 19:35:55;;;;;;;5.53;4.20;;;;;;;19.36;62.77;100254.81;11127838;26;19996;-60
2024/04/08 19:41:05;;;;;;;8.27;4.15;;;;;;;19.36;62.95;100249.44;11088168;26;20451;-61
2024/04/08 19:46:12;;;;;;;6.60;4.32;;;;;;;19.36;63.01;100244.06;11104337;26;20007;-60
2024/04/08 19:51:14;;;;;;;8.75;4.80;;;;;;;19.36;62.98;100228.72;11114678;26;20005;-60
2024/04/08 19:56:16;;;;;;;5.35;3.83;;;;;;;19.37;62.73;100218.75;11111321;26;20054;-60
2024/04/08 20:01:16;;;;;;;9.90;4.20;;;;;;;19.36;62.41;100212.59;11123112;26;20737;-61
2024/04/08 20:06:17;;;;;;;5.70;4.00;;;;;;;19.36;62.60;100203.72;11128282;26;20000;-60
2024/04/08 20:11:18;;;;;;;6.15;4.13;;;;;;;19.36;61.97;100207.22;11115651;26;20000;-61
2024/04/08 20:16:19;;;;;;;5.45;4.20;;;;;;;19.36;62.27;100195.66;11132718;26;20023;-60
2024/04/08 20:21:22;;;;;;;6.70;4.05;;;;;;;19.36;61.98;100198.34;11157552;26;20004;-60
2024/04/08 20:26:22;;;;;;;9.02;5.00;;;;;;;19.36;62.48;100192.97;11155077;26;21511;-60
2024/04/08 20:31:22;;;;;;;5.13;3.43;;;;;;;19.34;62.57;100179.06;11152750;26;20069;-60
2024/04/08 20:36:22;;;;;;;6.97;4.20;;;;;;;19.36;61.79;100179.53;11126563;26;20753;-60
2024/04/08 20:41:23;;;;;;;7.20;5.63;;;;;;;19.35;62.52;100173.38;11114232;26;20009;-60
2024/04/08 20:46:25;;;;;;;5.25;3.92;;;;;;;19.35;62.30;100180.66;11128197;26;20265;-60
2024/04/08 20:51:25;;;;;;;5.00;3.55;;;;;;;19.36;62.00;100187.59;11128997;26;20085;-60
2024/04/08 20:56:25;;;;;;;6.47;4.07;;;;;;;19.34;61.54;100189.81;11126487;26;20011;-60
2024/04/08 21:01:26;;;;;;;5.28;3.72;;;;;;;19.35;62.22;100178.75;11126510;26;20422;-60
2024/04/08 21:06:26;;;;;;;6.37;4.10;;;;;;;19.34;61.75;100165.63;11125618;26;20474;-60
2024/04/08 21:11:27;;;;;;;6.50;3.63;;;;;;;19.35;61.95;100153.75;11126228;26;20267;-60
2024/04/08 21:16:27;;;;;;;5.05;4.25;;;;;;;19.33;61.99;100137.94;11124719;26;20262;-60
2024/04/08 21:21:28;;;;;;;5.90;4.47;;;;;;;19.33;62.16;100123.72;11126213;26;19997;-60
2024/04/08 21:26:28;;;;;;;5.70;4.00;;;;;;;19.32;61.43;100122.94;11124818;26;19996;-60
2024/04/08 21:31:28;;;;;;;4.97;3.80;;;;;;;19.34;61.96;100119.91;11136610;26;20376;-60
2024/04/08 21:36:29;;;;;;;6.60;4.57;;;;;;;19.32;61.85;100108.69;11124560;26;20867;-60
2024/04/08 21:41:31;;;;;;;5.80;4.22;;;;;;;19.33;61.79;100102.22;11125665;26;20298;-60
2024/04/08 21:46:31;;;;;;;5.20;3.83;;;;;;;19.31;61.82;100097.16;11122857;26;20012;-60
2024/04/08 21:51:31;;;;;;;4.20;3.13;;;;;;;19.31;61.24;100078.34;11125240;26;20012;-60
2024/04/08 21:56:32;;;;;;;6.40;4.28;;;;;;;19.31;61.27;100077.56;11121932;26;20235;-60
2024/04/08 22:01:32;;;;;;;5.97;4.10;;;;;;;19.30;61.60;100066.00;11119542;26;20042;-60
2024/04/08 22:06:32;;;;;;;8.47;4.67;;;;;;;19.30;61.32;100074.06;11125742;26;20531;-60
2024/04/08 22:11:33;;;;;;;6.20;4.50;;;;;;;19.29;61.23;100081.31;11117192;26;20337;-60
2024/04/08 22:16:33;;;;;;;7.73;4.80;;;;;;;19.29;61.75;100064.41;11125056;26;20271;-60
2024/04/08 22:21:33;;;;;;;4.83;4.03;;;;;;;19.29;61.54;100053.66;11126130;26;20603;-60
2024/04/08 22:26:34;;;;;;;5.50;3.70;;;;;;;19.29;61.85;100049.06;11122203;26;20000;-60
2024/04/08 22:31:34;;;;;;;5.53;3.90;;;;;;;19.29;61.43;100045.59;11134465;26;20580;-60
2024/04/08 22:36:34;;;;;;;4.10;3.47;;;;;;;19.29;61.19;100040.22;11124773;26;20372;-60
2024/04/08 22:41:35;;;;;;;6.23;4.23;;;;;;;19.29;61.96;100042.91;11111946;26;20007;-60
2024/04/08 22:46:35;;;;;;;5.00;3.73;;;;;;;19.28;61.42;100052.06;11125215;26;20219;-60
2024/04/08 22:51:35;;;;;;;5.33;4.07;;;;;;;19.27;61.92;100064.72;11125399;26;20219;-60
2024/04/08 22:56:36;;;;;;;6.10;3.93;;;;;;;19.27;61.44;100091.59;11123554;26;20222;-60
2024/04/08 23:01:36;;;;;;;5.67;4.30;;;;;;;19.28;61.22;100138.09;11123094;26;20537;-60